LFCR/RDZ METAR and TAF weather

Enter ICAO airport designator
Station Type Date Time Source
LFCR METAR 2021/04/17 03:30 UTC NOAA

LFCR 170330Z AUTO 33007KT CAVOK 01/M04 Q1018 NOSIG


Station Type Date Time Source
LFCR Decoded METAR 2021/04/17 03:30 UTC NOAA

Rodez, France (LFCR) 44-24N 002-29E 580M
Apr 16, 2021 - 11:30 PM EDT / 2021.04.17 0330 UTC
Wind: from the NNW (330 degrees) at 8 MPH (7 KT):0
Visibility: greater than 7 mile(s):0
Temperature: 33 F (1 C)
Windchill: 26 F (-3 C):1
Dew Point: 24 F (-4 C)
Relative Humidity: 69%
Pressure (altimeter): 30.06 in. Hg (1018 hPa)
ob: LFCR 170330Z AUTO 33007KT CAVOK 01/M04 Q1018 NOSIG
cycle: 3

Station Type Date Time Source
LFCR TAF 2021/04/16 18:48 UTC NOAA

TAF LFCR 161700Z 1618/1718 02010KT 9999 SCT060TCU
BECMG 1620/1622 CAVOK
TEMPO 1711/1717 SCT055TCU

Example: see airport list